sensor_id;sensor_type;location;lat;lon;timestamp;P1;durP1;ratioP1;P2;durP2;ratioP2
79005;SDS011;69202;45.498;-73.582;2023-04-25T00:02:22;4.40;;;2.85;;
79005;SDS011;69202;45.498;-73.582;2023-04-25T00:04:50;3.92;;;2.80;;
79005;SDS011;69202;45.498;-73.582;2023-04-25T00:07:17;4.00;;;3.00;;
79005;SDS011;69202;45.498;-73.582;2023-04-25T00:09:43;5.40;;;2.63;;
79005;SDS011;69202;45.498;-73.582;2023-04-25T00:12:10;3.25;;;2.65;;
79005;SDS011;69202;45.498;-73.582;2023-04-25T00:14:36;3.42;;;2.22;;
79005;SDS011;69202;45.498;-73.582;2023-04-25T00:17:02;5.13;;;2.45;;
79005;SDS011;69202;45.498;-73.582;2023-04-25T00:19:29;4.65;;;2.35;;
79005;SDS011;69202;45.498;-73.582;2023-04-25T00:21:55;3.17;;;1.63;;
79005;SDS011;69202;45.498;-73.582;2023-04-25T00:24:21;2.95;;;2.05;;
79005;SDS011;69202;45.498;-73.582;2023-04-25T00:26:47;3.85;;;2.03;;
79005;SDS011;69202;45.498;-73.582;2023-04-25T00:29:13;3.67;;;1.70;;
79005;SDS011;69202;45.498;-73.582;2023-04-25T00:31:39;1.58;;;1.35;;
79005;SDS011;69202;45.498;-73.582;2023-04-25T00:34:06;1.80;;;1.35;;
79005;SDS011;69202;45.498;-73.582;2023-04-25T00:36:33;2.28;;;1.48;;
79005;SDS011;69202;45.498;-73.582;2023-04-25T00:38:59;3.42;;;1.67;;
79005;SDS011;69202;45.498;-73.582;2023-04-25T00:41:25;2.53;;;1.48;;
79005;SDS011;69202;45.498;-73.582;2023-04-25T00:43:52;3.78;;;2.17;;
79005;SDS011;69202;45.498;-73.582;2023-04-25T00:46:20;2.95;;;1.70;;
79005;SDS011;69202;45.498;-73.582;2023-04-25T00:48:45;2.47;;;1.75;;
79005;SDS011;69202;45.498;-73.582;2023-04-25T00:51:16;1.67;;;1.35;;
79005;SDS011;69202;45.498;-73.582;2023-04-25T00:53:46;2.22;;;1.92;;
79005;SDS011;69202;45.498;-73.582;2023-04-25T00:56:15;3.28;;;1.88;;
79005;SDS011;69202;45.498;-73.582;2023-04-25T00:58:41;2.85;;;2.03;;
79005;SDS011;69202;45.498;-73.582;2023-04-25T01:01:08;2.83;;;2.42;;
79005;SDS011;69202;45.498;-73.582;2023-04-25T01:03:36;2.30;;;2.10;;
79005;SDS011;69202;45.498;-73.582;2023-04-25T01:06:07;3.17;;;2.20;;
79005;SDS011;69202;45.498;-73.582;2023-04-25T01:08:34;3.20;;;2.10;;
79005;SDS011;69202;45.498;-73.582;2023-04-25T01:11:04;2.20;;;2.00;;
79005;SDS011;69202;45.498;-73.582;2023-04-25T01:13:30;5.22;;;2.20;;
79005;SDS011;69202;45.498;-73.582;2023-04-25T01:15:58;2.50;;;1.88;;
79005;SDS011;69202;45.498;-73.582;2023-04-25T01:18:24;2.88;;;2.45;;
79005;SDS011;69202;45.498;-73.582;2023-04-25T01:20:51;1.90;;;1.80;;
79005;SDS011;69202;45.498;-73.582;2023-04-25T01:23:21;2.00;;;1.80;;
79005;SDS011;69202;45.498;-73.582;2023-04-25T01:25:48;2.20;;;1.98;;
79005;SDS011;69202;45.498;-73.582;2023-04-25T01:28:15;3.50;;;2.08;;
79005;SDS011;69202;45.498;-73.582;2023-04-25T01:30:44;2.13;;;1.60;;
79005;SDS011;69202;45.498;-73.582;2023-04-25T01:33:11;3.90;;;2.33;;
79005;SDS011;69202;45.498;-73.582;2023-04-25T01:35:40;4.03;;;2.10;;
79005;SDS011;69202;45.498;-73.582;2023-04-25T01:38:08;2.13;;;1.83;;
79005;SDS011;69202;45.498;-73.582;2023-04-25T01:40:34;2.47;;;2.10;;
79005;SDS011;69202;45.498;-73.582;2023-04-25T01:43:04;2.20;;;2.00;;
79005;SDS011;69202;45.498;-73.582;2023-04-25T01:45:30;2.05;;;1.85;;
79005;SDS011;69202;45.498;-73.582;2023-04-25T01:47:56;6.43;;;2.50;;
79005;SDS011;69202;45.498;-73.582;2023-04-25T01:50:24;2.58;;;2.00;;
79005;SDS011;69202;45.498;-73.582;2023-04-25T01:52:50;2.70;;;1.98;;
79005;SDS011;69202;45.498;-73.582;2023-04-25T01:55:16;1.83;;;1.63;;
79005;SDS011;69202;45.498;-73.582;2023-04-25T01:57:42;2.17;;;1.60;;
79005;SDS011;69202;45.498;-73.582;2023-04-25T02:00:08;2.88;;;1.60;;
79005;SDS011;69202;45.498;-73.582;2023-04-25T02:02:35;2.03;;;1.63;;
79005;SDS011;69202;45.498;-73.582;2023-04-25T02:05:01;2.35;;;2.10;;
79005;SDS011;69202;45.498;-73.582;2023-04-25T02:07:27;1.95;;;1.73;;
79005;SDS011;69202;45.498;-73.582;2023-04-25T02:09:53;2.03;;;1.60;;
79005;SDS011;69202;45.498;-73.582;2023-04-25T02:12:19;4.18;;;2.10;;
79005;SDS011;69202;45.498;-73.582;2023-04-25T02:14:45;2.75;;;1.80;;
79005;SDS011;69202;45.498;-73.582;2023-04-25T02:17:11;5.70;;;2.15;;
79005;SDS011;69202;45.498;-73.582;2023-04-25T02:19:37;1.70;;;1.60;;
79005;SDS011;69202;45.498;-73.582;2023-04-25T02:22:03;3.20;;;1.63;;
79005;SDS011;69202;45.498;-73.582;2023-04-25T02:24:29;1.55;;;1.45;;
79005;SDS011;69202;45.498;-73.582;2023-04-25T02:26:57;2.67;;;1.50;;
79005;SDS011;69202;45.498;-73.582;2023-04-25T02:29:23;4.50;;;2.40;;
79005;SDS011;69202;45.498;-73.582;2023-04-25T02:31:48;3.95;;;1.50;;
79005;SDS011;69202;45.498;-73.582;2023-04-25T02:34:15;1.50;;;1.40;;
79005;SDS011;69202;45.498;-73.582;2023-04-25T02:36:41;2.03;;;1.83;;
79005;SDS011;69202;45.498;-73.582;2023-04-25T02:39:07;2.00;;;1.42;;
79005;SDS011;69202;45.498;-73.582;2023-04-25T02:41:33;2.03;;;1.50;;
79005;SDS011;69202;45.498;-73.582;2023-04-25T02:43:59;2.85;;;1.60;;
79005;SDS011;69202;45.498;-73.582;2023-04-25T02:46:25;1.50;;;1.40;;
79005;SDS011;69202;45.498;-73.582;2023-04-25T02:48:51;2.95;;;1.90;;
79005;SDS011;69202;45.498;-73.582;2023-04-25T02:51:17;2.47;;;1.92;;
79005;SDS011;69202;45.498;-73.582;2023-04-25T02:53:43;2.30;;;2.05;;
79005;SDS011;69202;45.498;-73.582;2023-04-25T02:56:09;3.00;;;1.73;;
79005;SDS011;69202;45.498;-73.582;2023-04-25T02:58:35;3.83;;;1.70;;
79005;SDS011;69202;45.498;-73.582;2023-04-25T03:01:01;2.50;;;1.80;;
79005;SDS011;69202;45.498;-73.582;2023-04-25T03:03:27;3.55;;;1.80;;
79005;SDS011;69202;45.498;-73.582;2023-04-25T03:05:53;2.55;;;2.05;;
79005;SDS011;69202;45.498;-73.582;2023-04-25T03:08:20;3.13;;;1.90;;
79005;SDS011;69202;45.498;-73.582;2023-04-25T03:10:46;2.42;;;2.00;;
79005;SDS011;69202;45.498;-73.582;2023-04-25T03:13:13;2.35;;;1.98;;
79005;SDS011;69202;45.498;-73.582;2023-04-25T03:15:38;2.05;;;1.80;;
79005;SDS011;69202;45.498;-73.582;2023-04-25T03:18:05;2.60;;;2.13;;
79005;SDS011;69202;45.498;-73.582;2023-04-25T03:20:30;2.20;;;2.00;;
79005;SDS011;69202;45.498;-73.582;2023-04-25T03:22:56;4.30;;;2.05;;
79005;SDS011;69202;45.498;-73.582;2023-04-25T03:25:22;1.75;;;1.60;;
79005;SDS011;69202;45.498;-73.582;2023-04-25T03:27:48;2.97;;;2.03;;
79005;SDS011;69202;45.498;-73.582;2023-04-25T03:30:14;2.55;;;2.35;;
79005;SDS011;69202;45.498;-73.582;2023-04-25T03:32:40;3.40;;;2.03;;
79005;SDS011;69202;45.498;-73.582;2023-04-25T03:35:06;2.42;;;2.05;;
79005;SDS011;69202;45.498;-73.582;2023-04-25T03:37:32;2.95;;;1.90;;
79005;SDS011;69202;45.498;-73.582;2023-04-25T03:39:58;2.53;;;1.92;;
79005;SDS011;69202;45.498;-73.582;2023-04-25T03:42:24;2.97;;;1.88;;
79005;SDS011;69202;45.498;-73.582;2023-04-25T03:44:51;2.83;;;2.17;;
79005;SDS011;69202;45.498;-73.582;2023-04-25T03:47:17;1.83;;;1.70;;
79005;SDS011;69202;45.498;-73.582;2023-04-25T03:49:43;2.67;;;1.98;;
79005;SDS011;69202;45.498;-73.582;2023-04-25T03:52:09;1.92;;;1.55;;
79005;SDS011;69202;45.498;-73.582;2023-04-25T03:54:35;2.10;;;1.60;;
79005;SDS011;69202;45.498;-73.582;2023-04-25T03:57:01;2.20;;;1.75;;
79005;SDS011;69202;45.498;-73.582;2023-04-25T03:59:27;3.03;;;1.63;;
79005;SDS011;69202;45.498;-73.582;2023-04-25T04:01:54;1.95;;;1.60;;
79005;SDS011;69202;45.498;-73.582;2023-04-25T04:04:19;2.85;;;1.50;;
79005;SDS011;69202;45.498;-73.582;2023-04-25T04:06:45;3.35;;;1.40;;
79005;SDS011;69202;45.498;-73.582;2023-04-25T04:09:11;2.75;;;1.83;;
79005;SDS011;69202;45.498;-73.582;2023-04-25T04:11:38;2.28;;;1.73;;
79005;SDS011;69202;45.498;-73.582;2023-04-25T04:14:05;1.90;;;1.77;;
79005;SDS011;69202;45.498;-73.582;2023-04-25T04:16:31;3.35;;;1.98;;
79005;SDS011;69202;45.498;-73.582;2023-04-25T04:18:57;2.40;;;1.60;;
79005;SDS011;69202;45.498;-73.582;2023-04-25T04:21:24;2.55;;;1.85;;
79005;SDS011;69202;45.498;-73.582;2023-04-25T04:23:49;1.92;;;1.73;;
79005;SDS011;69202;45.498;-73.582;2023-04-25T04:26:15;2.22;;;1.95;;
79005;SDS011;69202;45.498;-73.582;2023-04-25T04:28:42;1.90;;;1.60;;
79005;SDS011;69202;45.498;-73.582;2023-04-25T04:31:11;3.80;;;2.00;;
79005;SDS011;69202;45.498;-73.582;2023-04-25T04:33:37;2.60;;;1.90;;
79005;SDS011;69202;45.498;-73.582;2023-04-25T04:36:03;3.85;;;1.85;;
79005;SDS011;69202;45.498;-73.582;2023-04-25T04:38:30;2.80;;;1.90;;
79005;SDS011;69202;45.498;-73.582;2023-04-25T04:40:56;1.90;;;1.50;;
79005;SDS011;69202;45.498;-73.582;2023-04-25T04:43:23;2.60;;;1.88;;
79005;SDS011;69202;45.498;-73.582;2023-04-25T04:45:49;1.63;;;1.52;;
79005;SDS011;69202;45.498;-73.582;2023-04-25T04:48:15;2.20;;;1.73;;
79005;SDS011;69202;45.498;-73.582;2023-04-25T04:50:45;3.03;;;1.70;;
79005;SDS011;69202;45.498;-73.582;2023-04-25T04:53:11;1.98;;;1.40;;
79005;SDS011;69202;45.498;-73.582;2023-04-25T04:55:37;2.13;;;1.88;;
79005;SDS011;69202;45.498;-73.582;2023-04-25T04:58:03;1.60;;;1.30;;
79005;SDS011;69202;45.498;-73.582;2023-04-25T05:00:29;1.85;;;1.50;;
79005;SDS011;69202;45.498;-73.582;2023-04-25T05:02:55;2.67;;;1.50;;
79005;SDS011;69202;45.498;-73.582;2023-04-25T05:05:21;1.55;;;1.40;;
79005;SDS011;69202;45.498;-73.582;2023-04-25T05:07:47;5.07;;;1.60;;
79005;SDS011;69202;45.498;-73.582;2023-04-25T05:10:13;4.50;;;1.33;;
79005;SDS011;69202;45.498;-73.582;2023-04-25T05:12:39;1.90;;;1.50;;
79005;SDS011;69202;45.498;-73.582;2023-04-25T05:15:05;2.17;;;1.45;;
79005;SDS011;69202;45.498;-73.582;2023-04-25T05:17:31;9.57;;;1.73;;
79005;SDS011;69202;45.498;-73.582;2023-04-25T05:19:58;1.92;;;1.63;;
79005;SDS011;69202;45.498;-73.582;2023-04-25T05:22:24;2.03;;;1.60;;
79005;SDS011;69202;45.498;-73.582;2023-04-25T05:24:50;1.83;;;1.33;;
79005;SDS011;69202;45.498;-73.582;2023-04-25T05:27:17;3.15;;;1.70;;
79005;SDS011;69202;45.498;-73.582;2023-04-25T05:29:43;1.55;;;1.33;;
79005;SDS011;69202;45.498;-73.582;2023-04-25T05:32:10;3.20;;;1.30;;
79005;SDS011;69202;45.498;-73.582;2023-04-25T05:34:36;1.65;;;1.35;;
79005;SDS011;69202;45.498;-73.582;2023-04-25T05:37:03;1.40;;;1.30;;
79005;SDS011;69202;45.498;-73.582;2023-04-25T05:39:29;1.65;;;1.55;;
79005;SDS011;69202;45.498;-73.582;2023-04-25T05:41:55;1.48;;;1.17;;
79005;SDS011;69202;45.498;-73.582;2023-04-25T05:44:21;1.42;;;1.27;;
79005;SDS011;69202;45.498;-73.582;2023-04-25T05:46:47;1.67;;;1.27;;
79005;SDS011;69202;45.498;-73.582;2023-04-25T05:49:13;3.13;;;1.60;;
79005;SDS011;69202;45.498;-73.582;2023-04-25T05:51:39;1.88;;;1.50;;
79005;SDS011;69202;45.498;-73.582;2023-04-25T05:54:05;2.42;;;1.60;;
79005;SDS011;69202;45.498;-73.582;2023-04-25T05:56:31;2.05;;;1.70;;
79005;SDS011;69202;45.498;-73.582;2023-04-25T05:58:57;1.95;;;1.40;;
79005;SDS011;69202;45.498;-73.582;2023-04-25T06:01:23;1.77;;;1.20;;
79005;SDS011;69202;45.498;-73.582;2023-04-25T06:03:49;3.03;;;1.73;;
79005;SDS011;69202;45.498;-73.582;2023-04-25T06:06:16;1.75;;;1.65;;
79005;SDS011;69202;45.498;-73.582;2023-04-25T06:08:42;1.45;;;1.30;;
79005;SDS011;69202;45.498;-73.582;2023-04-25T06:11:08;3.03;;;1.55;;
79005;SDS011;69202;45.498;-73.582;2023-04-25T06:13:34;2.17;;;1.42;;
79005;SDS011;69202;45.498;-73.582;2023-04-25T06:16:00;2.75;;;1.92;;
79005;SDS011;69202;45.498;-73.582;2023-04-25T06:18:26;2.45;;;1.50;;
79005;SDS011;69202;45.498;-73.582;2023-04-25T06:20:52;1.73;;;1.50;;
79005;SDS011;69202;45.498;-73.582;2023-04-25T06:23:18;2.08;;;1.75;;
79005;SDS011;69202;45.498;-73.582;2023-04-25T06:25:44;2.10;;;1.63;;
79005;SDS011;69202;45.498;-73.582;2023-04-25T06:28:10;1.92;;;1.55;;
79005;SDS011;69202;45.498;-73.582;2023-04-25T06:30:37;1.88;;;1.48;;
79005;SDS011;69202;45.498;-73.582;2023-04-25T06:33:02;2.15;;;1.50;;
79005;SDS011;69202;45.498;-73.582;2023-04-25T06:35:28;4.32;;;1.75;;
79005;SDS011;69202;45.498;-73.582;2023-04-25T06:37:54;2.47;;;1.40;;
79005;SDS011;69202;45.498;-73.582;2023-04-25T06:40:20;4.32;;;1.60;;
79005;SDS011;69202;45.498;-73.582;2023-04-25T06:42:46;1.70;;;1.60;;
79005;SDS011;69202;45.498;-73.582;2023-04-25T06:45:12;2.45;;;1.92;;
79005;SDS011;69202;45.498;-73.582;2023-04-25T06:47:38;2.22;;;2.03;;
79005;SDS011;69202;45.498;-73.582;2023-04-25T06:50:04;2.72;;;2.25;;
79005;SDS011;69202;45.498;-73.582;2023-04-25T06:52:31;2.60;;;2.15;;
79005;SDS011;69202;45.498;-73.582;2023-04-25T06:54:57;5.85;;;2.35;;
79005;SDS011;69202;45.498;-73.582;2023-04-25T06:57:23;4.70;;;2.05;;
79005;SDS011;69202;45.498;-73.582;2023-04-25T06:59:49;3.03;;;2.33;;
79005;SDS011;69202;45.498;-73.582;2023-04-25T07:02:17;6.65;;;2.38;;
79005;SDS011;69202;45.498;-73.582;2023-04-25T07:04:43;2.72;;;2.50;;
79005;SDS011;69202;45.498;-73.582;2023-04-25T07:07:10;3.20;;;2.28;;
79005;SDS011;69202;45.498;-73.582;2023-04-25T07:09:36;4.72;;;2.70;;
79005;SDS011;69202;45.498;-73.582;2023-04-25T07:12:02;3.58;;;2.80;;
79005;SDS011;69202;45.498;-73.582;2023-04-25T07:14:28;6.88;;;2.90;;
79005;SDS011;69202;45.498;-73.582;2023-04-25T07:16:54;4.28;;;3.13;;
79005;SDS011;69202;45.498;-73.582;2023-04-25T07:19:22;4.90;;;2.80;;
79005;SDS011;69202;45.498;-73.582;2023-04-25T07:21:51;4.65;;;3.35;;
79005;SDS011;69202;45.498;-73.582;2023-04-25T07:24:18;7.85;;;3.38;;
79005;SDS011;69202;45.498;-73.582;2023-04-25T07:26:44;6.47;;;3.85;;
79005;SDS011;69202;45.498;-73.582;2023-04-25T07:29:10;5.70;;;4.70;;
79005;SDS011;69202;45.498;-73.582;2023-04-25T07:31:35;7.57;;;5.20;;
79005;SDS011;69202;45.498;-73.582;2023-04-25T07:34:01;8.75;;;5.05;;
79005;SDS011;69202;45.498;-73.582;2023-04-25T07:36:27;6.38;;;5.38;;
79005;SDS011;69202;45.498;-73.582;2023-04-25T07:38:53;7.00;;;5.70;;
79005;SDS011;69202;45.498;-73.582;2023-04-25T07:41:19;9.65;;;6.60;;
79005;SDS011;69202;45.498;-73.582;2023-04-25T07:43:45;11.48;;;6.88;;
79005;SDS011;69202;45.498;-73.582;2023-04-25T07:46:11;9.98;;;6.22;;
79005;SDS011;69202;45.498;-73.582;2023-04-25T07:48:37;10.43;;;6.57;;
79005;SDS011;69202;45.498;-73.582;2023-04-25T07:51:03;9.60;;;5.93;;
79005;SDS011;69202;45.498;-73.582;2023-04-25T07:53:30;7.25;;;5.55;;
79005;SDS011;69202;45.498;-73.582;2023-04-25T07:55:57;10.73;;;5.97;;
79005;SDS011;69202;45.498;-73.582;2023-04-25T07:58:23;7.20;;;5.53;;
79005;SDS011;69202;45.498;-73.582;2023-04-25T08:00:49;7.13;;;5.35;;
79005;SDS011;69202;45.498;-73.582;2023-04-25T08:03:15;10.30;;;5.78;;
79005;SDS011;69202;45.498;-73.582;2023-04-25T08:05:41;5.65;;;4.93;;
79005;SDS011;69202;45.498;-73.582;2023-04-25T08:08:07;7.65;;;5.53;;
79005;SDS011;69202;45.498;-73.582;2023-04-25T08:10:33;8.35;;;4.95;;
79005;SDS011;69202;45.498;-73.582;2023-04-25T08:12:59;6.45;;;4.38;;
79005;SDS011;69202;45.498;-73.582;2023-04-25T08:15:25;5.80;;;4.60;;
79005;SDS011;69202;45.498;-73.582;2023-04-25T08:17:51;9.32;;;5.28;;
79005;SDS011;69202;45.498;-73.582;2023-04-25T08:20:17;7.50;;;4.63;;
79005;SDS011;69202;45.498;-73.582;2023-04-25T08:22:43;5.50;;;4.55;;
79005;SDS011;69202;45.498;-73.582;2023-04-25T08:25:09;6.05;;;4.78;;
79005;SDS011;69202;45.498;-73.582;2023-04-25T08:27:35;9.38;;;4.75;;
79005;SDS011;69202;45.498;-73.582;2023-04-25T08:30:02;6.78;;;4.05;;
79005;SDS011;69202;45.498;-73.582;2023-04-25T08:32:28;6.75;;;4.30;;
79005;SDS011;69202;45.498;-73.582;2023-04-25T08:34:54;5.30;;;4.43;;
79005;SDS011;69202;45.498;-73.582;2023-04-25T08:37:20;8.38;;;4.95;;
79005;SDS011;69202;45.498;-73.582;2023-04-25T08:39:46;7.65;;;4.43;;
79005;SDS011;69202;45.498;-73.582;2023-04-25T08:42:13;7.20;;;4.15;;
79005;SDS011;69202;45.498;-73.582;2023-04-25T08:44:40;7.22;;;4.70;;
79005;SDS011;69202;45.498;-73.582;2023-04-25T08:47:06;7.40;;;4.30;;
79005;SDS011;69202;45.498;-73.582;2023-04-25T08:49:32;7.80;;;4.95;;
79005;SDS011;69202;45.498;-73.582;2023-04-25T08:51:59;8.60;;;4.50;;
79005;SDS011;69202;45.498;-73.582;2023-04-25T08:54:29;6.78;;;4.15;;
79005;SDS011;69202;45.498;-73.582;2023-04-25T08:56:57;6.18;;;4.53;;
79005;SDS011;69202;45.498;-73.582;2023-04-25T08:59:27;7.28;;;4.32;;
79005;SDS011;69202;45.498;-73.582;2023-04-25T09:01:54;6.95;;;4.70;;
79005;SDS011;69202;45.498;-73.582;2023-04-25T09:04:20;7.88;;;4.95;;
79005;SDS011;69202;45.498;-73.582;2023-04-25T09:06:47;6.88;;;4.30;;
79005;SDS011;69202;45.498;-73.582;2023-04-25T09:09:13;6.75;;;4.43;;
79005;SDS011;69202;45.498;-73.582;2023-04-25T09:11:39;10.50;;;5.50;;
79005;SDS011;69202;45.498;-73.582;2023-04-25T09:19:26;7.87;;;5.20;;
79005;SDS011;69202;45.498;-73.582;2023-04-25T09:21:54;5.85;;;5.10;;
79005;SDS011;69202;45.498;-73.582;2023-04-25T09:24:30;8.93;;;5.07;;
79005;SDS011;69202;45.498;-73.582;2023-04-25T09:26:57;7.03;;;4.95;;
79005;SDS011;69202;45.498;-73.582;2023-04-25T09:29:34;10.13;;;5.50;;
79005;SDS011;69202;45.498;-73.582;2023-04-25T09:32:18;9.68;;;4.80;;
79005;SDS011;69202;45.498;-73.582;2023-04-25T09:34:52;7.50;;;5.72;;
79005;SDS011;69202;45.498;-73.582;2023-04-25T09:37:20;9.35;;;6.82;;
79005;SDS011;69202;45.498;-73.582;2023-04-25T09:39:54;8.07;;;6.50;;
79005;SDS011;69202;45.498;-73.582;2023-04-25T09:42:23;9.18;;;6.55;;
79005;SDS011;69202;45.498;-73.582;2023-04-25T09:44:51;9.57;;;7.05;;
79005;SDS011;69202;45.498;-73.582;2023-04-25T09:47:22;11.20;;;6.88;;
79005;SDS011;69202;45.498;-73.582;2023-04-25T09:49:50;11.40;;;7.43;;
79005;SDS011;69202;45.498;-73.582;2023-04-25T09:52:17;8.20;;;6.85;;
79005;SDS011;69202;45.498;-73.582;2023-04-25T09:54:48;9.73;;;7.85;;
79005;SDS011;69202;45.498;-73.582;2023-04-25T09:59:46;12.25;;;8.55;;
79005;SDS011;69202;45.498;-73.582;2023-04-25T10:02:14;10.10;;;8.18;;
79005;SDS011;69202;45.498;-73.582;2023-04-25T10:04:41;11.65;;;9.18;;
79005;SDS011;69202;45.498;-73.582;2023-04-25T10:07:08;10.60;;;8.27;;
79005;SDS011;69202;45.498;-73.582;2023-04-25T10:09:38;11.43;;;8.77;;
79005;SDS011;69202;45.498;-73.582;2023-04-25T10:12:06;14.00;;;9.30;;
79005;SDS011;69202;45.498;-73.582;2023-04-25T10:14:33;9.63;;;8.35;;
79005;SDS011;69202;45.498;-73.582;2023-04-25T10:17:00;10.18;;;8.82;;
79005;SDS011;69202;45.498;-73.582;2023-04-25T10:19:27;12.75;;;9.05;;
79005;SDS011;69202;45.498;-73.582;2023-04-25T10:22:02;9.68;;;7.63;;
79005;SDS011;69202;45.498;-73.582;2023-04-25T10:24:32;11.65;;;8.43;;
79005;SDS011;69202;45.498;-73.582;2023-04-25T10:27:00;10.00;;;8.48;;
79005;SDS011;69202;45.498;-73.582;2023-04-25T10:29:27;14.75;;;8.07;;
79005;SDS011;69202;45.498;-73.582;2023-04-25T10:31:53;10.77;;;8.63;;
79005;SDS011;69202;45.498;-73.582;2023-04-25T10:34:23;10.68;;;8.45;;
79005;SDS011;69202;45.498;-73.582;2023-04-25T10:37:03;10.20;;;9.05;;
79005;SDS011;69202;45.498;-73.582;2023-04-25T10:39:29;11.50;;;9.35;;
79005;SDS011;69202;45.498;-73.582;2023-04-25T10:41:58;10.10;;;8.48;;
79005;SDS011;69202;45.498;-73.582;2023-04-25T10:44:30;9.73;;;8.38;;
79005;SDS011;69202;45.498;-73.582;2023-04-25T10:47:00;10.70;;;9.50;;
79005;SDS011;69202;45.498;-73.582;2023-04-25T10:49:28;11.95;;;9.38;;
79005;SDS011;69202;45.498;-73.582;2023-04-25T10:52:19;11.60;;;8.48;;
79005;SDS011;69202;45.498;-73.582;2023-04-25T10:54:52;12.07;;;9.07;;
79005;SDS011;69202;45.498;-73.582;2023-04-25T10:57:39;11.52;;;9.02;;
79005;SDS011;69202;45.498;-73.582;2023-04-25T11:00:08;13.25;;;10.00;;
79005;SDS011;69202;45.498;-73.582;2023-04-25T11:02:37;10.90;;;8.70;;
79005;SDS011;69202;45.498;-73.582;2023-04-25T11:05:25;14.27;;;8.85;;
79005;SDS011;69202;45.498;-73.582;2023-04-25T11:07:57;11.63;;;8.93;;
79005;SDS011;69202;45.498;-73.582;2023-04-25T11:10:31;12.10;;;8.98;;
79005;SDS011;69202;45.498;-73.582;2023-04-25T11:13:00;12.35;;;9.63;;
79005;SDS011;69202;45.498;-73.582;2023-04-25T11:15:26;12.45;;;9.45;;
79005;SDS011;69202;45.498;-73.582;2023-04-25T11:17:53;13.85;;;9.48;;
79005;SDS011;69202;45.498;-73.582;2023-04-25T11:20:19;13.82;;;9.90;;
79005;SDS011;69202;45.498;-73.582;2023-04-25T11:22:46;12.50;;;9.63;;
79005;SDS011;69202;45.498;-73.582;2023-04-25T11:25:13;15.40;;;10.38;;
79005;SDS011;69202;45.498;-73.582;2023-04-25T11:30:16;15.38;;;10.07;;
79005;SDS011;69202;45.498;-73.582;2023-04-25T11:32:43;16.63;;;10.85;;
79005;SDS011;69202;45.498;-73.582;2023-04-25T11:35:10;18.27;;;10.90;;
79005;SDS011;69202;45.498;-73.582;2023-04-25T11:37:39;22.48;;;11.02;;
79005;SDS011;69202;45.498;-73.582;2023-04-25T11:40:06;13.68;;;10.10;;
79005;SDS011;69202;45.498;-73.582;2023-04-25T11:42:36;12.70;;;9.43;;
79005;SDS011;69202;45.498;-73.582;2023-04-25T11:45:03;13.15;;;9.40;;
79005;SDS011;69202;45.498;-73.582;2023-04-25T11:47:31;19.05;;;9.85;;
79005;SDS011;69202;45.498;-73.582;2023-04-25T11:49:58;14.23;;;9.50;;
79005;SDS011;69202;45.498;-73.582;2023-04-25T11:52:34;12.23;;;9.90;;
79005;SDS011;69202;45.498;-73.582;2023-04-25T11:55:14;13.48;;;9.98;;
79005;SDS011;69202;45.498;-73.582;2023-04-25T11:57:43;14.45;;;9.50;;
79005;SDS011;69202;45.498;-73.582;2023-04-25T12:00:14;14.13;;;9.18;;
79005;SDS011;69202;45.498;-73.582;2023-04-25T12:02:42;15.82;;;10.00;;
79005;SDS011;69202;45.498;-73.582;2023-04-25T12:05:10;31.33;;;10.48;;
79005;SDS011;69202;45.498;-73.582;2023-04-25T12:07:39;14.82;;;8.77;;
79005;SDS011;69202;45.498;-73.582;2023-04-25T12:10:15;14.20;;;8.75;;
79005;SDS011;69202;45.498;-73.582;2023-04-25T12:12:43;14.30;;;8.95;;
79005;SDS011;69202;45.498;-73.582;2023-04-25T12:15:31;14.13;;;9.18;;
79005;SDS011;69202;45.498;-73.582;2023-04-25T12:17:59;11.55;;;8.90;;
79005;SDS011;69202;45.498;-73.582;2023-04-25T12:20:27;18.55;;;9.48;;
79005;SDS011;69202;45.498;-73.582;2023-04-25T12:22:53;12.50;;;8.93;;
79005;SDS011;69202;45.498;-73.582;2023-04-25T12:25:35;15.18;;;9.85;;
79005;SDS011;69202;45.498;-73.582;2023-04-25T12:28:15;16.67;;;9.48;;
79005;SDS011;69202;45.498;-73.582;2023-04-25T12:30:58;18.10;;;10.20;;
79005;SDS011;69202;45.498;-73.582;2023-04-25T12:33:34;16.95;;;10.45;;
79005;SDS011;69202;45.498;-73.582;2023-04-25T12:36:01;16.05;;;10.00;;
79005;SDS011;69202;45.498;-73.582;2023-04-25T12:38:37;13.77;;;9.73;;
79005;SDS011;69202;45.498;-73.582;2023-04-25T12:41:05;12.50;;;8.57;;
79005;SDS011;69202;45.498;-73.582;2023-04-25T12:43:32;11.38;;;8.57;;
79005;SDS011;69202;45.498;-73.582;2023-04-25T12:45:58;17.17;;;9.50;;
79005;SDS011;69202;45.498;-73.582;2023-04-25T12:48:24;12.85;;;8.75;;
79005;SDS011;69202;45.498;-73.582;2023-04-25T12:50:50;14.30;;;8.00;;
79005;SDS011;69202;45.498;-73.582;2023-04-25T12:53:21;12.45;;;8.85;;
79005;SDS011;69202;45.498;-73.582;2023-04-25T12:55:50;11.90;;;8.88;;
79005;SDS011;69202;45.498;-73.582;2023-04-25T12:58:17;15.35;;;8.75;;
79005;SDS011;69202;45.498;-73.582;2023-04-25T13:00:44;11.90;;;8.07;;
79005;SDS011;69202;45.498;-73.582;2023-04-25T13:03:10;17.55;;;10.05;;
79005;SDS011;69202;45.498;-73.582;2023-04-25T13:05:37;13.45;;;8.27;;
79005;SDS011;69202;45.498;-73.582;2023-04-25T13:08:04;12.70;;;7.75;;
79005;SDS011;69202;45.498;-73.582;2023-04-25T13:10:30;11.48;;;7.38;;
79005;SDS011;69202;45.498;-73.582;2023-04-25T13:12:58;11.43;;;8.02;;
79005;SDS011;69202;45.498;-73.582;2023-04-25T13:15:26;8.50;;;7.22;;
79005;SDS011;69202;45.498;-73.582;2023-04-25T13:17:52;10.32;;;7.80;;
79005;SDS011;69202;45.498;-73.582;2023-04-25T13:20:18;12.23;;;7.28;;
79005;SDS011;69202;45.498;-73.582;2023-04-25T13:22:47;10.57;;;7.55;;
79005;SDS011;69202;45.498;-73.582;2023-04-25T13:25:13;11.70;;;8.40;;
79005;SDS011;69202;45.498;-73.582;2023-04-25T13:27:39;16.92;;;8.48;;
79005;SDS011;69202;45.498;-73.582;2023-04-25T13:30:05;17.65;;;9.25;;
79005;SDS011;69202;45.498;-73.582;2023-04-25T13:32:36;14.88;;;7.80;;
79005;SDS011;69202;45.498;-73.582;2023-04-25T13:35:03;12.98;;;9.13;;
79005;SDS011;69202;45.498;-73.582;2023-04-25T13:37:30;13.10;;;8.20;;
79005;SDS011;69202;45.498;-73.582;2023-04-25T13:40:00;11.23;;;7.82;;
79005;SDS011;69202;45.498;-73.582;2023-04-25T13:42:29;11.57;;;7.93;;
79005;SDS011;69202;45.498;-73.582;2023-04-25T13:44:58;9.57;;;6.78;;
79005;SDS011;69202;45.498;-73.582;2023-04-25T13:47:25;10.57;;;6.93;;
79005;SDS011;69202;45.498;-73.582;2023-04-25T13:49:51;12.90;;;6.78;;
79005;SDS011;69202;45.498;-73.582;2023-04-25T13:52:17;11.93;;;7.50;;
79005;SDS011;69202;45.498;-73.582;2023-04-25T13:54:43;11.60;;;7.85;;
79005;SDS011;69202;45.498;-73.582;2023-04-25T13:57:09;9.68;;;6.32;;
79005;SDS011;69202;45.498;-73.582;2023-04-25T13:59:36;8.50;;;6.72;;
79005;SDS011;69202;45.498;-73.582;2023-04-25T14:02:03;7.03;;;5.30;;
79005;SDS011;69202;45.498;-73.582;2023-04-25T14:04:29;14.07;;;6.07;;
79005;SDS011;69202;45.498;-73.582;2023-04-25T14:06:55;9.48;;;6.03;;
79005;SDS011;69202;45.498;-73.582;2023-04-25T14:09:21;13.00;;;6.72;;
79005;SDS011;69202;45.498;-73.582;2023-04-25T14:11:53;15.02;;;6.00;;
79005;SDS011;69202;45.498;-73.582;2023-04-25T14:14:20;10.43;;;7.47;;
79005;SDS011;69202;45.498;-73.582;2023-04-25T14:16:47;9.60;;;7.15;;
79005;SDS011;69202;45.498;-73.582;2023-04-25T14:19:17;10.80;;;6.30;;
79005;SDS011;69202;45.498;-73.582;2023-04-25T14:21:43;12.23;;;6.88;;
79005;SDS011;69202;45.498;-73.582;2023-04-25T14:24:09;9.10;;;6.82;;
79005;SDS011;69202;45.498;-73.582;2023-04-25T14:26:38;10.55;;;6.90;;
79005;SDS011;69202;45.498;-73.582;2023-04-25T14:29:06;16.98;;;7.40;;